Time;durP1;ratioP1;P1;durP2;ratioP2;P2;SDS_P1;SDS_P2;PMS_P1;PMS_P2;Temp;Humidity;BMP_temperature;BMP_pressure;BME280_temperature;BME280_humidity;BME280_pressure;Samples;Min_cycle;Max_cycle;Signal;HPM_P1;HPM_P2
2021/09/05 00:00:17;;;;;;;10.98;8.25;;;16.10;14.30;;;;;;5079991;28;20040;-71
2021/09/05 00:02:46;;;;;;;12.60;8.38;;;16.10;14.20;;;;;;5083187;28;20525;-72
2021/09/05 00:05:16;;;;;;;12.48;8.48;;;16.10;14.50;;;;;;5078477;28;20493;-71
2021/09/05 00:07:44;;;;;;;10.63;8.57;;;16.00;15.20;;;;;;5076008;28;20251;-71
2021/09/05 00:10:13;;;;;;;11.32;8.23;;;16.00;15.50;;;;;;5079569;28;20153;-71
2021/09/05 00:12:42;;;;;;;11.50;8.98;;;16.00;16.10;;;;;;5079913;28;20048;-72
2021/09/05 00:15:11;;;;;;;10.88;8.80;;;16.00;15.20;;;;;;5080978;28;20138;-71
2021/09/05 00:17:40;;;;;;;11.65;8.70;;;16.00;15.20;;;;;;5040273;28;20044;-72
2021/09/05 00:20:10;;;;;;;12.65;7.53;;;16.00;14.70;;;;;;5077899;28;20067;-71
2021/09/05 00:22:39;;;;;;;10.80;7.95;;;16.00;14.40;;;;;;5076635;28;20101;-71
2021/09/05 00:25:09;;;;;;;10.82;7.88;;;16.00;14.70;;;;;;5045051;28;20048;-71
2021/09/05 00:27:37;;;;;;;12.45;8.27;;;16.00;14.80;;;;;;5073133;28;20054;-72
2021/09/05 00:30:07;;;;;;;10.45;7.65;;;15.90;15.30;;;;;;5081217;28;20590;-72
2021/09/05 00:32:35;;;;;;;10.20;7.45;;;15.80;15.80;;;;;;5080016;28;20140;-70
2021/09/05 00:35:03;;;;;;;10.68;7.75;;;15.70;16.50;;;;;;5080759;28;20131;-72
2021/09/05 00:37:31;;;;;;;10.18;7.70;;;15.70;16.90;;;;;;5073354;28;21483;-71
2021/09/05 00:40:01;;;;;;;11.32;8.48;;;15.70;17.40;;;;;;5080357;28;20043;-70
2021/09/05 00:42:29;;;;;;;13.00;8.95;;;15.60;17.60;;;;;;5081473;28;20056;-71
2021/09/05 00:45:01;;;;;;;12.63;8.32;;;15.60;18.40;;;;;;5053052;28;20051;-71
2021/09/05 00:47:29;;;;;;;11.35;8.65;;;15.60;18.80;;;;;;5074343;28;20163;-72
2021/09/05 00:49:57;;;;;;;10.68;7.60;;;15.60;18.90;;;;;;5079419;28;20072;-71
2021/09/05 00:52:26;;;;;;;10.00;7.82;;;15.50;18.80;;;;;;5078105;28;20047;-72
2021/09/05 00:54:54;;;;;;;11.15;8.95;;;15.50;18.80;;;;;;5078976;28;20716;-71
2021/09/05 00:57:23;;;;;;;13.77;8.57;;;15.50;18.80;;;;;;5069212;28;20431;-72
2021/09/05 00:59:51;;;;;;;9.48;7.72;;;15.50;19.30;;;;;;5079777;28;20504;-71
2021/09/05 01:02:23;;;;;;;14.35;8.35;;;15.50;18.60;;;;;;5081021;28;20048;-71
2021/09/05 01:04:51;;;;;;;10.73;7.72;;;15.50;18.80;;;;;;5079596;28;20111;-71
2021/09/05 01:07:19;;;;;;;9.98;7.65;;;15.50;18.80;;;;;;5042893;28;20624;-72
2021/09/05 01:09:49;;;;;;;9.48;7.35;;;15.40;19.20;;;;;;5057767;28;20071;-71
2021/09/05 01:12:17;;;;;;;10.18;6.82;;;15.40;19.40;;;;;;5058999;28;20459;-71
2021/09/05 01:14:46;;;;;;;9.23;7.22;;;15.30;19.80;;;;;;5057256;28;20133;-71
2021/09/05 01:17:15;;;;;;;10.38;7.18;;;15.40;20.00;;;;;;5049454;28;20854;-70
2021/09/05 01:19:42;;;;;;;8.85;6.78;;;15.30;20.70;;;;;;5059471;28;20048;-71
2021/09/05 01:22:11;;;;;;;10.45;7.75;;;15.20;21.10;;;;;;5056942;28;20503;-72
2021/09/05 01:24:44;;;;;;;10.30;7.03;;;15.10;22.00;;;;;;5053883;28;20463;-71
2021/09/05 01:27:14;;;;;;;10.43;7.38;;;15.10;22.00;;;;;;5055152;28;20052;-70
2021/09/05 01:29:42;;;;;;;9.95;7.68;;;15.10;22.10;;;;;;5055728;28;20098;-73
2021/09/05 01:32:10;;;;;;;9.63;7.30;;;15.10;22.00;;;;;;5058599;28;20321;-71
2021/09/05 01:34:40;;;;;;;11.88;8.27;;;15.10;22.20;;;;;;5062305;28;20504;-71
2021/09/05 01:37:08;;;;;;;12.40;8.13;;;15.10;22.10;;;;;;5052073;28;20048;-71
2021/09/05 01:39:36;;;;;;;11.13;9.00;;;15.10;22.10;;;;;;5058635;28;20041;-71
2021/09/05 01:42:04;;;;;;;11.73;8.48;;;15.10;22.10;;;;;;5056797;28;20553;-71
2021/09/05 01:44:33;;;;;;;11.10;8.15;;;15.10;22.50;;;;;;5079230;28;20149;-71
2021/09/05 01:47:01;;;;;;;12.00;8.50;;;15.10;22.70;;;;;;5071735;28;20499;-71
2021/09/05 01:49:29;;;;;;;13.93;8.30;;;15.10;23.20;;;;;;5079678;28;20040;-71
2021/09/05 01:51:57;;;;;;;13.65;8.65;;;15.10;23.10;;;;;;5079826;28;20068;-71
2021/09/05 01:54:25;;;;;;;11.43;8.73;;;15.10;23.30;;;;;;5077571;28;20517;-71
2021/09/05 01:56:53;;;;;;;11.20;8.85;;;15.00;23.00;;;;;;5071166;28;20060;-71
2021/09/05 01:59:21;;;;;;;12.38;9.25;;;14.90;23.80;;;;;;5079647;28;20071;-72
2021/09/05 02:01:51;;;;;;;14.48;10.32;;;14.90;24.40;;;;;;5079148;28;20518;-71
2021/09/05 02:04:19;;;;;;;19.38;9.88;;;14.80;24.70;;;;;;5077955;28;20420;-72
2021/09/05 02:06:49;;;;;;;12.70;9.55;;;14.90;25.10;;;;;;5078508;28;20097;-71
2021/09/05 02:09:17;;;;;;;14.13;9.90;;;14.90;24.90;;;;;;5079777;28;20036;-71
2021/09/05 02:11:45;;;;;;;14.95;10.52;;;14.90;24.80;;;;;;5080599;28;20423;-71
2021/09/05 02:14:13;;;;;;;12.43;9.75;;;14.90;25.20;;;;;;5082066;28;21226;-71
2021/09/05 02:16:41;;;;;;;16.73;10.10;;;14.80;25.10;;;;;;5075295;28;20083;-71
2021/09/05 02:19:10;;;;;;;17.08;10.57;;;14.80;25.40;;;;;;5049824;28;20497;-73
2021/09/05 02:21:38;;;;;;;13.38;10.80;;;14.80;25.40;;;;;;5084244;28;20052;-73
2021/09/05 02:24:06;;;;;;;14.65;10.68;;;14.80;25.70;;;;;;5085299;28;20059;-72
2021/09/05 02:26:34;;;;;;;16.42;10.38;;;14.70;25.90;;;;;;5079240;28;20060;-72
2021/09/05 02:29:02;;;;;;;15.90;10.50;;;14.70;26.20;;;;;;5077949;28;20040;-72
2021/09/05 02:31:30;;;;;;;15.40;10.32;;;14.70;26.70;;;;;;5080279;28;20605;-72
2021/09/05 02:33:58;;;;;;;15.18;11.02;;;14.70;27.00;;;;;;5079883;28;20053;-72
2021/09/05 02:36:28;;;;;;;16.25;10.82;;;14.60;26.80;;;;;;5083758;28;20581;-72
2021/09/05 02:38:55;;;;;;;17.83;10.98;;;14.70;27.80;;;;;;5074830;28;20052;-72
2021/09/05 02:41:24;;;;;;;21.58;12.18;;;14.60;27.80;;;;;;5081319;28;20139;-71
2021/09/05 02:43:53;;;;;;;17.23;11.48;;;14.60;28.60;;;;;;5085003;28;20388;-71
2021/09/05 02:46:21;;;;;;;17.35;11.95;;;14.60;28.30;;;;;;5080382;28;20097;-71
2021/09/05 02:48:49;;;;;;;15.50;10.30;;;14.50;28.90;;;;;;5075165;28;20121;-71
2021/09/05 02:51:17;;;;;;;13.40;10.38;;;14.40;29.60;;;;;;5085073;28;20271;-72
2021/09/05 02:53:46;;;;;;;13.88;9.63;;;14.20;31.30;;;;;;5080160;28;20122;-71
2021/09/05 02:56:14;;;;;;;13.63;9.38;;;14.00;33.90;;;;;;5079309;28;20109;-72
2021/09/05 02:58:42;;;;;;;14.75;10.02;;;14.00;35.40;;;;;;5072196;28;20462;-71
2021/09/05 03:01:10;;;;;;;12.55;9.60;;;13.90;35.80;;;;;;5063653;28;20048;-71
2021/09/05 03:03:39;;;;;;;16.77;9.40;;;13.90;36.30;;;;;;5082597;28;20119;-71
2021/09/05 03:06:07;;;;;;;13.40;9.27;;;13.80;36.40;;;;;;5080522;28;20118;-72
2021/09/05 03:08:35;;;;;;;10.85;8.80;;;13.80;37.00;;;;;;5074545;28;20496;-71
2021/09/05 03:11:04;;;;;;;11.73;9.43;;;13.80;37.90;;;;;;5079780;28;20055;-71
2021/09/05 03:13:32;;;;;;;10.68;8.35;;;13.80;37.50;;;;;;5083473;28;20052;-71
2021/09/05 03:16:00;;;;;;;14.88;8.77;;;13.70;38.30;;;;;;5078756;28;20059;-71
2021/09/05 03:18:30;;;;;;;11.75;8.43;;;13.70;38.80;;;;;;5079654;28;20086;-71
2021/09/05 03:20:58;;;;;;;13.07;9.18;;;13.70;39.10;;;;;;5080665;28;20518;-71
2021/09/05 03:23:26;;;;;;;11.77;8.27;;;13.70;39.20;;;;;;5081937;28;20043;-71
2021/09/05 03:25:54;;;;;;;11.48;8.85;;;13.60;39.40;;;;;;5078285;28;20052;-71
2021/09/05 03:28:23;;;;;;;11.55;8.65;;;13.70;40.10;;;;;;5077810;28;20495;-71
2021/09/05 03:30:51;;;;;;;12.02;8.85;;;13.70;39.60;;;;;;5079838;28;20044;-71
2021/09/05 03:33:24;;;;;;;11.38;9.00;;;13.70;40.10;;;;;;5083110;28;20121;-72
2021/09/05 03:35:52;;;;;;;14.20;9.95;;;13.80;39.50;;;;;;5080496;28;20047;-71
2021/09/05 03:38:20;;;;;;;18.20;11.38;;;13.80;39.40;;;;;;5071943;28;20047;-72
2021/09/05 03:40:48;;;;;;;18.58;11.35;;;13.90;39.50;;;;;;5083829;28;20486;-71
2021/09/05 03:43:16;;;;;;;16.95;11.57;;;14.00;39.00;;;;;;5083155;28;20407;-71
2021/09/05 03:45:45;;;;;;;14.68;10.55;;;14.00;37.80;;;;;;5079751;28;20074;-71
2021/09/05 03:48:13;;;;;;;14.85;10.48;;;14.10;36.30;;;;;;5074459;28;20052;-71
2021/09/05 03:50:41;;;;;;;13.80;10.65;;;14.10;36.20;;;;;;5080354;28;20109;-71
2021/09/05 03:53:09;;;;;;;16.42;10.82;;;14.10;35.50;;;;;;5083768;28;20589;-71
2021/09/05 03:55:37;;;;;;;16.33;12.32;;;14.10;36.20;;;;;;5079098;28;20097;-71
2021/09/05 03:58:07;;;;;;;15.52;11.38;;;14.00;36.30;;;;;;5074335;28;20036;-71
2021/09/05 04:00:36;;;;;;;17.30;11.50;;;14.00;37.00;;;;;;5080251;28;20052;-71
2021/09/05 04:03:05;;;;;;;15.02;11.55;;;14.00;37.00;;;;;;5083605;28;20048;-71
2021/09/05 04:05:33;;;;;;;15.77;11.20;;;14.00;36.40;;;;;;5078927;28;20055;-70
2021/09/05 04:08:12;;;;;;;15.02;11.07;;;14.00;36.20;;;;;;5072541;28;20135;-70
2021/09/05 04:10:40;;;;;;;17.85;11.40;;;14.00;35.60;;;;;;5080074;28;20040;-71
2021/09/05 04:13:10;;;;;;;14.93;11.02;;;14.00;36.00;;;;;;5084337;28;20052;-71
2021/09/05 04:15:38;;;;;;;15.55;11.60;;;14.00;36.40;;;;;;5080367;28;20563;-70
2021/09/05 04:18:08;;;;;;;13.45;11.05;;;14.00;36.30;;;;;;5078128;28;20048;-71
2021/09/05 04:20:36;;;;;;;13.18;10.93;;;14.00;36.30;;;;;;5080800;28;20093;-71
2021/09/05 04:23:04;;;;;;;16.80;11.77;;;13.90;36.40;;;;;;5078932;28;20055;-71
2021/09/05 04:25:32;;;;;;;15.68;11.43;;;13.80;37.10;;;;;;5077344;28;20047;-70
2021/09/05 04:28:00;;;;;;;16.90;12.20;;;13.80;38.00;;;;;;5055785;28;20439;-71
2021/09/05 04:30:28;;;;;;;16.20;11.45;;;13.90;37.60;;;;;;5082277;28;20101;-71
2021/09/05 04:32:56;;;;;;;17.70;11.60;;;13.80;37.50;;;;;;5080689;28;20036;-71
2021/09/05 04:35:25;;;;;;;14.60;11.90;;;13.70;37.50;;;;;;5080014;28;20036;-71
2021/09/05 04:37:53;;;;;;;16.65;11.27;;;13.70;38.60;;;;;;5072502;28;20126;-71
2021/09/05 04:40:21;;;;;;;14.45;11.63;;;13.80;37.90;;;;;;5078730;28;20040;-71
2021/09/05 04:42:49;;;;;;;14.60;11.40;;;13.80;37.50;;;;;;5078464;28;20056;-71
2021/09/05 04:45:17;;;;;;;14.40;10.90;;;13.70;37.90;;;;;;5081730;28;20040;-71
2021/09/05 04:47:45;;;;;;;15.65;10.70;;;13.70;39.10;;;;;;5041235;28;20848;-71
2021/09/05 04:50:13;;;;;;;12.32;9.52;;;13.60;39.20;;;;;;5078624;28;20040;-70
2021/09/05 04:52:43;;;;;;;12.95;9.20;;;13.60;39.30;;;;;;5081711;28;20047;-70
2021/09/05 04:55:11;;;;;;;15.25;9.40;;;13.60;39.40;;;;;;5080856;28;20490;-71
2021/09/05 04:57:39;;;;;;;14.75;9.73;;;13.70;39.30;;;;;;5076106;28;20043;-70
2021/09/05 05:00:08;;;;;;;12.23;8.98;;;13.60;37.50;;;;;;5076431;28;20561;-71
2021/09/05 05:02:36;;;;;;;14.65;8.80;;;13.60;37.70;;;;;;5081825;28;20040;-71
2021/09/05 05:05:05;;;;;;;11.15;9.25;;;14.00;35.90;;;;;;5081508;28;20133;-71
2021/09/05 05:07:34;;;;;;;11.63;8.85;;;14.60;28.50;;;;;;5079007;28;20048;-71
2021/09/05 05:10:03;;;;;;;10.75;9.35;;;14.80;24.10;;;;;;5077064;28;20584;-71
2021/09/05 05:12:31;;;;;;;11.07;8.77;;;15.00;22.00;;;;;;5080438;28;20876;-71
2021/09/05 05:14:59;;;;;;;10.73;8.70;;;15.20;18.30;;;;;;5079582;28;20071;-70
2021/09/05 05:17:27;;;;;;;12.45;8.30;;;15.40;18.30;;;;;;5076348;28;20097;-71
2021/09/05 05:19:55;;;;;;;12.63;8.68;;;15.70;14.50;;;;;;5078929;28;20044;-71
2021/09/05 05:22:23;;;;;;;12.20;8.10;;;16.10;12.00;;;;;;5079610;28;20048;-71
2021/09/05 05:24:51;;;;;;;10.57;8.05;;;16.40;10.80;;;;;;5080416;28;20048;-71
2021/09/05 05:27:21;;;;;;;13.02;8.30;;;16.80;7.60;;;;;;5074631;28;20048;-71
2021/09/05 05:29:49;;;;;;;11.75;8.70;;;16.60;6.00;;;;;;5081163;28;20057;-71
2021/09/05 05:32:16;;;;;;;11.02;7.90;;;15.80;10.80;;;;;;5080060;28;20044;-72
2021/09/05 05:34:45;;;;;;;12.32;8.45;;;15.00;17.30;;;;;;5080899;28;20572;-71
2021/09/05 05:37:14;;;;;;;12.05;9.32;;;14.90;19.60;;;;;;5074111;28;20143;-71
2021/09/05 05:39:42;;;;;;;12.15;9.43;;;14.90;22.00;;;;;;5080370;28;20044;-72
2021/09/05 05:42:10;;;;;;;12.52;9.93;;;14.70;21.80;;;;;;5082238;28;20044;-71
2021/09/05 05:44:40;;;;;;;14.40;9.75;;;14.80;21.90;;;;;;5081752;28;20093;-71
2021/09/05 05:47:08;;;;;;;11.43;8.85;;;14.80;21.90;;;;;;5074921;28;20102;-71
2021/09/05 05:49:40;;;;;;;12.38;9.38;;;14.80;22.10;;;;;;5079185;28;20406;-71
2021/09/05 05:52:08;;;;;;;12.25;9.18;;;14.70;23.40;;;;;;5078687;28;20238;-71
2021/09/05 05:54:36;;;;;;;18.80;9.82;;;14.60;24.10;;;;;;5087728;28;20052;-75
2021/09/05 05:57:04;;;;;;;12.05;9.80;;;14.70;25.20;;;;;;5078061;28;20060;-72
2021/09/05 05:59:32;;;;;;;12.23;9.27;;;14.80;23.20;;;;;;5081317;28;20048;-72
2021/09/05 06:02:02;;;;;;;13.07;9.15;;;14.90;22.20;;;;;;5081248;28;20110;-71
2021/09/05 06:04:30;;;;;;;16.05;10.18;;;15.10;23.50;;;;;;5081015;28;20052;-72
2021/09/05 06:06:59;;;;;;;11.68;9.77;;;15.20;21.80;;;;;;5073503;28;20151;-72
2021/09/05 06:09:27;;;;;;;11.52;9.20;;;15.20;21.00;;;;;;5084411;28;20048;-72
2021/09/05 06:11:55;;;;;;;16.58;9.90;;;15.40;20.40;;;;;;5066275;28;20475;-72
2021/09/05 06:14:23;;;;;;;13.15;9.77;;;15.40;19.70;;;;;;5064904;28;20047;-72
2021/09/05 06:16:51;;;;;;;14.32;9.30;;;15.40;18.70;;;;;;5076965;28;20090;-69
2021/09/05 06:19:21;;;;;;;12.05;9.48;;;15.60;18.60;;;;;;5082762;28;20052;-72
2021/09/05 06:21:50;;;;;;;14.05;10.15;;;15.50;18.80;;;;;;5081007;28;20044;-72
2021/09/05 06:24:18;;;;;;;13.18;9.50;;;15.70;17.10;;;;;;5084499;28;20059;-73
2021/09/05 06:26:46;;;;;;;17.23;11.73;;;15.70;17.60;;;;;;5080257;28;20097;-72
2021/09/05 06:29:14;;;;;;;11.13;9.43;;;15.90;17.30;;;;;;5059936;28;20051;-72
2021/09/05 06:31:42;;;;;;;11.90;8.75;;;15.90;16.30;;;;;;5082524;28;20048;-72
2021/09/05 06:34:10;;;;;;;12.32;9.00;;;16.00;15.50;;;;;;5082384;28;20099;-70
2021/09/05 06:36:40;;;;;;;13.38;10.07;;;16.10;15.10;;;;;;5074690;28;20496;-70
2021/09/05 06:39:08;;;;;;;13.40;9.82;;;16.20;14.40;;;;;;5081171;28;20391;-72
2021/09/05 06:41:35;;;;;;;13.60;9.27;;;16.30;13.90;;;;;;5082340;28;20078;-70
2021/09/05 06:44:04;;;;;;;12.95;8.70;;;16.20;14.00;;;;;;5078075;28;20510;-72
2021/09/05 06:46:32;;;;;;;10.90;8.52;;;16.50;13.40;;;;;;5079737;28;20051;-70
2021/09/05 06:49:00;;;;;;;12.27;9.43;;;16.60;13.30;;;;;;5077333;28;20150;-71
2021/09/05 06:51:31;;;;;;;12.70;9.27;;;16.50;12.20;;;;;;5075202;28;20964;-72
2021/09/05 06:54:00;;;;;;;13.80;8.95;;;16.60;11.30;;;;;;5083137;28;20055;-70
2021/09/05 06:56:28;;;;;;;12.65;9.15;;;16.40;12.60;;;;;;5079687;28;20488;-72
2021/09/05 06:58:56;;;;;;;12.55;9.63;;;16.60;12.00;;;;;;5078537;28;20048;-73
2021/09/05 07:01:24;;;;;;;12.38;9.88;;;16.60;11.80;;;;;;5084167;28;20052;-70
2021/09/05 07:03:52;;;;;;;11.85;9.68;;;16.50;12.20;;;;;;5084448;28;20045;-72
2021/09/05 07:06:20;;;;;;;14.20;9.75;;;16.60;12.00;;;;;;5063045;28;20305;-73
2021/09/05 07:08:48;;;;;;;16.83;9.23;;;16.90;11.50;;;;;;5077745;28;20044;-71
2021/09/05 07:11:18;;;;;;;10.75;8.63;;;17.10;9.50;;;;;;5082429;28;20048;-71
2021/09/05 07:13:46;;;;;;;13.65;8.95;;;17.30;9.10;;;;;;5062506;28;20044;-71
2021/09/05 07:16:14;;;;;;;10.93;8.50;;;17.20;9.00;;;;;;5081217;28;20037;-72
2021/09/05 07:18:45;;;;;;;12.57;8.50;;;17.30;7.90;;;;;;5071992;28;20502;-72
2021/09/05 07:21:13;;;;;;;11.90;9.25;;;17.50;8.10;;;;;;5081094;28;20125;-72
2021/09/05 07:23:46;;;;;;;11.15;8.23;;;17.60;7.30;;;;;;5049675;28;20045;-72
2021/09/05 07:26:14;;;;;;;15.63;9.50;;;17.70;6.50;;;;;;5080516;28;20052;-71
2021/09/05 07:28:43;;;;;;;12.32;9.30;;;17.50;7.40;;;;;;5077278;28;20048;-72
2021/09/05 07:31:11;;;;;;;11.80;8.93;;;17.80;7.10;;;;;;5065985;28;20495;-71
2021/09/05 07:33:39;;;;;;;11.68;9.05;;;18.00;5.80;;;;;;5079848;28;20048;-72
2021/09/05 07:36:08;;;;;;;10.80;8.20;;;18.20;5.80;;;;;;5079121;28;20048;-70
2021/09/05 07:38:36;;;;;;;12.18;8.93;;;18.00;5.60;;;;;;5074438;28;20040;-72
2021/09/05 07:41:04;;;;;;;9.95;8.20;;;18.00;5.30;;;;;;5082800;28;20048;-72
2021/09/05 07:43:32;;;;;;;11.48;8.52;;;18.00;4.70;;;;;;5080367;28;20062;-71
2021/09/05 07:46:02;;;;;;;13.15;8.40;;;18.30;3.80;;;;;;5075832;28;20044;-72
2021/09/05 07:48:30;;;;;;;11.05;8.60;;;18.20;3.40;;;;;;5056083;28;20083;-71
2021/09/05 07:50:58;;;;;;;10.68;7.80;;;18.70;2.40;;;;;;5079805;28;20093;-71
2021/09/05 07:53:26;;;;;;;10.43;7.53;;;18.80;1.30;;;;;;5086235;28;20130;-71
2021/09/05 07:55:54;;;;;;;10.55;7.80;;;19.00;1.00;;;;;;5079044;28;20052;-70
2021/09/05 07:58:24;;;;;;;11.02;8.32;;;19.00;1.00;;;;;;5075162;28;20040;-71
2021/09/05 08:00:52;;;;;;;12.30;8.32;;;19.20;1.00;;;;;;5078219;28;20049;-71
2021/09/05 08:03:22;;;;;;;9.40;7.80;;;19.30;1.00;;;;;;5080798;28;20036;-70
2021/09/05 08:05:50;;;;;;;10.02;7.45;;;19.20;1.00;;;;;;5080432;28;20135;-71
2021/09/05 08:08:18;;;;;;;12.50;7.97;;;19.50;1.00;;;;;;5075669;28;20529;-70
2021/09/05 08:10:46;;;;;;;10.98;7.60;;;19.40;1.00;;;;;;5079172;28;20047;-71
2021/09/05 08:13:14;;;;;;;9.23;7.47;;;19.50;1.00;;;;;;5082700;28;20085;-71
2021/09/05 08:15:42;;;;;;;12.23;7.97;;;19.80;1.00;;;;;;5075675;28;20052;-71
2021/09/05 08:18:10;;;;;;;11.13;7.75;;;19.90;1.00;;;;;;5077931;28;20051;-71
2021/09/05 08:20:40;;;;;;;10.55;8.00;;;19.60;1.00;;;;;;5082847;28;20085;-70
2021/09/05 08:23:08;;;;;;;10.63;7.78;;;19.30;1.00;;;;;;5077283;28;20040;-70
2021/09/05 08:25:36;;;;;;;10.85;7.65;;;19.60;1.00;;;;;;5079982;28;20048;-71
2021/09/05 08:28:12;;;;;;;9.48;7.97;;;20.00;1.00;;;;;;5080802;28;20503;-71
2021/09/05 08:30:40;;;;;;;10.65;7.25;;;20.10;1.00;;;;;;5063966;28;20119;-72
2021/09/05 08:33:08;;;;;;;12.27;6.82;;;20.30;1.00;;;;;;5081195;28;20068;-71
2021/09/05 08:35:36;;;;;;;9.00;6.93;;;20.40;1.00;;;;;;5079916;28;20533;-72
2021/09/05 08:38:05;;;;;;;9.27;6.95;;;20.50;1.00;;;;;;5072807;28;20092;-70
2021/09/05 08:40:37;;;;;;;9.55;7.60;;;20.70;1.00;;;;;;5078484;28;20521;-70
2021/09/05 08:43:05;;;;;;;7.57;6.38;;;20.80;1.00;;;;;;5081865;28;20501;-70
2021/09/05 08:45:34;;;;;;;10.57;7.35;;;21.00;1.00;;;;;;5078689;28;20052;-72
2021/09/05 08:48:03;;;;;;;8.95;7.20;;;21.00;1.00;;;;;;5057925;28;20087;-72
2021/09/05 08:50:33;;;;;;;10.52;6.95;;;20.70;1.00;;;;;;5076654;28;20089;-71
2021/09/05 08:53:03;;;;;;;9.55;7.90;;;21.10;1.00;;;;;;5080374;28;20052;-72
2021/09/05 08:55:34;;;;;;;7.93;6.47;;;21.50;1.00;;;;;;5064124;28;20506;-71
2021/09/05 08:58:02;;;;;;;7.72;6.05;;;21.60;1.00;;;;;;5074251;28;20056;-72
2021/09/05 09:00:30;;;;;;;11.57;8.02;;;21.60;1.00;;;;;;5080570;28;20055;-71
2021/09/05 09:02:59;;;;;;;9.35;7.13;;;21.80;1.00;;;;;;5080177;28;20442;-72
2021/09/05 09:05:32;;;;;;;9.32;6.50;;;21.60;1.00;;;;;;5076096;28;20036;-72
2021/09/05 09:08:01;;;;;;;8.60;6.15;;;21.80;1.00;;;;;;5073347;28;20134;-72
2021/09/05 09:10:32;;;;;;;11.20;7.32;;;22.10;1.00;;;;;;5082795;28;20052;-70
2021/09/05 09:13:00;;;;;;;11.25;8.05;;;22.20;1.00;;;;;;5078582;28;20523;-71
2021/09/05 09:15:31;;;;;;;7.93;6.20;;;22.20;1.00;;;;;;5079236;28;20036;-71
2021/09/05 09:18:01;;;;;;;7.53;6.68;;;22.20;1.00;;;;;;5074939;28;20036;-71
2021/09/05 09:20:34;;;;;;;7.90;6.30;;;22.50;1.00;;;;;;5055766;28;20392;-71
2021/09/05 09:23:16;;;;;;;7.22;6.10;;;22.70;1.00;;;;;;5080368;28;20045;-72
2021/09/05 09:25:58;;;;;;;8.25;6.53;;;22.50;1.00;;;;;;5083907;28;20048;-74
2021/09/05 09:28:28;;;;;;;7.55;5.93;;;22.60;1.00;;;;;;5079125;28;20064;-72
2021/09/05 09:30:59;;;;;;;7.82;5.75;;;22.40;1.00;;;;;;5084978;28;20055;-71
2021/09/05 09:33:29;;;;;;;8.73;5.95;;;22.70;1.00;;;;;;5084587;28;20040;-71
2021/09/05 09:36:00;;;;;;;7.57;5.82;;;22.90;1.00;;;;;;5084283;28;20053;-71
2021/09/05 09:38:29;;;;;;;7.38;5.65;;;23.20;1.00;;;;;;5079441;28;20049;-71
2021/09/05 09:41:13;;;;;;;6.93;6.22;;;23.20;1.00;;;;;;5087902;28;20091;-71
2021/09/05 09:43:54;;;;;;;9.75;5.93;;;23.00;1.00;;;;;;5086300;28;20381;-72
2021/09/05 09:46:23;;;;;;;11.68;6.10;;;22.80;1.00;;;;;;5068884;28;20418;-72
2021/09/05 09:48:53;;;;;;;9.57;5.53;;;23.10;1.00;;;;;;5077814;28;20651;-72
2021/09/05 09:51:22;;;;;;;8.05;6.00;;;23.40;1.00;;;;;;5085699;28;20089;-71
2021/09/05 09:53:51;;;;;;;6.60;5.57;;;23.10;1.00;;;;;;5088460;28;20044;-70
2021/09/05 09:56:26;;;;;;;8.65;5.22;;;23.30;1.00;;;;;;5087843;28;20047;-71
2021/09/05 09:58:55;;;;;;;6.25;5.30;;;23.20;1.00;;;;;;5083112;28;20056;-71
2021/09/05 10:01:25;;;;;;;6.25;5.60;;;23.10;1.00;;;;;;5088312;28;20055;-71
2021/09/05 10:03:56;;;;;;;9.77;6.30;;;23.10;1.00;;;;;;5086530;28;20568;-71
2021/09/05 10:06:26;;;;;;;5.65;4.88;;;22.90;1.00;;;;;;5084903;28;20560;-71
2021/09/05 10:08:56;;;;;;;8.07;5.70;;;23.20;1.00;;;;;;5079520;28;20114;-71
2021/09/05 10:11:27;;;;;;;7.82;5.07;;;23.30;1.00;;;;;;5087680;28;20040;-71
2021/09/05 10:13:57;;;;;;;7.72;5.60;;;23.20;1.00;;;;;;5087044;28;20123;-71
2021/09/05 10:16:26;;;;;;;6.22;5.20;;;23.40;1.00;;;;;;5081473;28;20568;-71
2021/09/05 10:18:57;;;;;;;5.57;5.03;;;23.50;1.00;;;;;;5062712;28;20060;-71
2021/09/05 10:21:29;;;;;;;6.40;5.03;;;23.50;1.00;;;;;;5086345;28;20056;-71
2021/09/05 10:24:01;;;;;;;6.75;4.57;;;23.80;1.00;;;;;;5071837;28;20048;-70
2021/09/05 10:26:31;;;;;;;6.63;4.18;;;23.70;1.00;;;;;;5085222;28;20048;-70
2021/09/05 10:29:12;;;;;;;5.88;4.90;;;23.60;1.00;;;;;;5083301;28;20063;-72
2021/09/05 10:31:41;;;;;;;6.43;4.30;;;23.80;1.00;;;;;;5084009;28;20109;-70
2021/09/05 10:34:31;;;;;;;6.03;5.10;;;23.80;1.00;;;;;;5088348;28;20051;-71
2021/09/05 10:37:06;;;;;;;7.43;4.78;;;24.00;1.00;;;;;;5077442;28;20118;-70
2021/09/05 10:39:34;;;;;;;6.97;5.00;;;24.20;1.00;;;;;;5083978;28;20044;-72
2021/09/05 10:42:22;;;;;;;6.00;4.60;;;24.20;1.00;;;;;;5080882;28;20052;-71
2021/09/05 10:45:03;;;;;;;6.95;4.40;;;24.50;1.00;;;;;;5083289;28;20093;-72
2021/09/05 10:47:43;;;;;;;8.10;4.22;;;24.60;1.00;;;;;;5075842;28;20048;-71
2021/09/05 10:50:32;;;;;;;5.88;4.30;;;24.60;1.00;;;;;;5082661;28;20105;-71
2021/09/05 10:53:19;;;;;;;7.55;4.30;;;24.40;1.00;;;;;;5082474;28;20135;-72
2021/09/05 10:56:12;;;;;;;5.63;4.43;;;24.50;1.00;;;;;;5083940;28;20156;-72
2021/09/05 10:58:46;;;;;;;5.50;4.90;;;24.90;1.00;;;;;;5057897;28;20040;-70
2021/09/05 11:01:36;;;;;;;5.20;4.25;;;24.50;1.00;;;;;;5081033;28;20044;-71
2021/09/05 11:04:28;;;;;;;5.40;4.25;;;24.50;1.00;;;;;;5081025;28;20077;-71
2021/09/05 11:07:04;;;;;;;5.50;4.13;;;24.90;1.00;;;;;;5076552;28;20860;-70
2021/09/05 11:09:46;;;;;;;5.47;3.50;;;25.00;1.00;;;;;;5083282;28;20055;-71
2021/09/05 11:12:22;;;;;;;4.93;4.20;;;24.90;1.00;;;;;;5084025;28;20082;-72
2021/09/05 11:15:03;;;;;;;6.32;4.00;;;25.10;1.00;;;;;;5084477;28;20067;-71
2021/09/05 11:17:33;;;;;;;5.38;4.47;;;25.20;1.00;;;;;;5074670;28;20511;-71
2021/09/05 11:20:04;;;;;;;6.05;4.40;;;25.00;1.00;;;;;;5081099;28;20074;-72
2021/09/05 11:22:34;;;;;;;5.65;4.43;;;25.10;1.00;;;;;;5064653;28;20426;-72
2021/09/05 11:25:14;;;;;;;4.65;4.10;;;24.70;1.00;;;;;;5082634;28;20040;-71
2021/09/05 11:27:48;;;;;;;4.95;4.00;;;25.00;1.00;;;;;;5074925;28;20056;-72
2021/09/05 11:30:19;;;;;;;7.07;4.75;;;24.90;1.00;;;;;;5080737;28;20052;-72
2021/09/05 11:32:48;;;;;;;6.65;3.90;;;25.10;1.00;;;;;;5063355;28;20040;-71
2021/09/05 11:35:16;;;;;;;4.30;3.72;;;25.20;1.00;;;;;;5080221;28;20093;-72
2021/09/05 11:37:46;;;;;;;4.82;4.15;;;25.20;1.00;;;;;;5073907;28;20098;-72
2021/09/05 11:40:16;;;;;;;5.07;3.92;;;25.40;1.00;;;;;;5078508;28;20048;-72
2021/09/05 11:42:46;;;;;;;4.50;4.00;;;25.40;1.00;;;;;;5063863;28;20495;-72
2021/09/05 11:45:15;;;;;;;5.15;4.38;;;25.40;1.00;;;;;;5080511;28;20044;-71
2021/09/05 11:47:45;;;;;;;5.13;3.83;;;24.90;1.00;;;;;;5074624;28;20499;-72
2021/09/05 11:50:14;;;;;;;5.10;3.78;;;25.10;1.00;;;;;;5082850;28;20098;-71
2021/09/05 11:52:43;;;;;;;5.72;3.72;;;25.10;1.00;;;;;;5079944;28;20499;-72
2021/09/05 11:55:14;;;;;;;6.70;4.20;;;25.30;1.00;;;;;;5082468;28;20499;-72
2021/09/05 11:57:55;;;;;;;5.70;4.05;;;25.50;1.00;;;;;;5054858;28;20138;-72
2021/09/05 12:00:29;;;;;;;4.50;3.70;;;25.60;1.00;;;;;;5080477;28;20060;-72
2021/09/05 12:03:00;;;;;;;7.30;4.68;;;25.00;1.00;;;;;;5047016;28;20054;-72
2021/09/05 12:05:29;;;;;;;6.50;4.18;;;25.40;1.00;;;;;;5069377;28;20140;-70
2021/09/05 12:07:59;;;;;;;4.30;3.90;;;25.40;1.00;;;;;;5075029;28;20090;-71
2021/09/05 12:10:29;;;;;;;5.32;4.10;;;25.30;1.00;;;;;;5079022;28;20125;-72
2021/09/05 12:13:05;;;;;;;4.78;3.55;;;25.40;1.00;;;;;;5082468;28;20467;-72
2021/09/05 12:15:36;;;;;;;4.47;3.60;;;25.70;1.00;;;;;;5079671;28;20157;-72
2021/09/05 12:18:17;;;;;;;4.03;3.40;;;25.80;1.00;;;;;;5078240;28;20048;-73
2021/09/05 12:20:48;;;;;;;5.20;4.00;;;25.90;1.00;;;;;;5081922;28;20044;-72
2021/09/05 12:23:22;;;;;;;4.38;3.67;;;26.00;1.00;;;;;;5080736;28;20130;-70
2021/09/05 12:25:51;;;;;;;3.65;3.30;;;25.70;1.00;;;;;;5063868;28;20513;-73
2021/09/05 12:28:25;;;;;;;11.90;8.90;;;25.40;1.00;;;;;;5073253;28;20051;-72
2021/09/05 12:30:56;;;;;;;3.72;3.25;;;25.80;1.00;;;;;;5080079;28;20044;-72
2021/09/05 12:33:46;;;;;;;5.68;4.20;;;25.80;1.00;;;;;;5044136;28;20060;-72
2021/09/05 12:36:19;;;;;;;6.57;3.55;;;25.80;1.00;;;;;;5079256;28;20056;-72
2021/09/05 12:38:56;;;;;;;5.68;4.45;;;25.80;1.00;;;;;;5059767;28;20063;-72
2021/09/05 12:41:25;;;;;;;6.10;5.50;;;25.70;1.00;;;;;;5081013;28;20097;-71
2021/09/05 12:43:55;;;;;;;5.65;4.55;;;25.70;1.00;;;;;;5081363;28;20044;-71
2021/09/05 12:46:25;;;;;;;5.20;4.20;;;25.90;1.00;;;;;;5078721;28;20071;-71
2021/09/05 12:48:54;;;;;;;6.47;3.70;;;26.10;1.00;;;;;;5076027;28;21245;-71
2021/09/05 12:51:23;;;;;;;4.30;3.13;;;26.20;1.00;;;;;;5063928;28;20051;-71
2021/09/05 12:53:56;;;;;;;5.05;4.10;;;26.00;1.00;;;;;;5081976;28;20075;-71
2021/09/05 12:56:25;;;;;;;4.67;3.63;;;26.10;1.00;;;;;;5061202;28;20048;-72